createdAt,value
2023-03-12T00:02:22.465Z,101081.31
2023-03-12T00:04:50.298Z,101086.66
2023-03-12T00:07:19.320Z,101087.66
2023-03-12T00:09:47.020Z,101078.81
2023-03-12T00:12:14.924Z,101078.00
2023-03-12T00:14:42.640Z,101078.00
2023-03-12T00:17:10.364Z,101078.00
2023-03-12T00:19:38.070Z,101079.00
2023-03-12T00:22:05.955Z,101071.81
2023-03-12T00:24:35.037Z,101066.88
2023-03-12T00:27:02.763Z,101051.66
2023-03-12T00:29:30.468Z,101052.69
2023-03-12T00:31:58.186Z,101051.03
2023-03-12T00:34:25.933Z,101047.53
2023-03-12T00:36:53.612Z,101034.56
2023-03-12T00:39:21.394Z,101028.84
2023-03-12T00:41:50.449Z,101027.19
2023-03-12T00:44:19.905Z,101033.56
2023-03-12T00:46:47.757Z,101035.41
2023-03-12T00:49:15.464Z,101036.41
2023-03-12T00:51:43.169Z,101030.06
2023-03-12T00:54:10.944Z,101022.03
2023-03-12T00:56:38.668Z,101023.88
2023-03-12T00:59:07.769Z,101019.56
2023-03-12T01:01:35.613Z,101023.25
2023-03-12T01:04:03.412Z,101021.41
2023-03-12T01:06:31.204Z,101025.91
2023-03-12T01:08:59.417Z,101018.09
2023-03-12T01:11:27.218Z,101024.47
2023-03-12T01:13:55.109Z,101019.13
2023-03-12T01:16:28.116Z,101009.47
2023-03-12T01:18:56.008Z,101002.28
2023-03-12T01:21:24.005Z,101002.28
2023-03-12T01:23:52.443Z,100997.75
2023-03-12T01:26:20.448Z,100994.06
2023-03-12T01:28:48.239Z,100990.56
2023-03-12T01:31:18.703Z,100975.31
2023-03-12T01:33:49.757Z,100992.41
2023-03-12T01:36:19.430Z,100993.25
2023-03-12T01:38:47.175Z,101000.63
2023-03-12T01:41:15.052Z,101001.44
2023-03-12T01:43:43.154Z,101003.09
2023-03-12T01:46:26.739Z,100991.59
2023-03-12T01:48:59.223Z,100992.41
2023-03-12T01:51:31.581Z,100978.63
2023-03-12T01:54:01.820Z,100977.41
2023-03-12T01:56:34.123Z,100973.91
2023-03-12T01:59:06.887Z,100967.75
2023-03-12T02:01:35.022Z,100966.94
2023-03-12T02:04:04.350Z,100967.56
2023-03-12T02:06:38.776Z,100964.25
2023-03-12T02:09:08.154Z,100958.09
2023-03-12T02:11:36.228Z,100950.47
2023-03-12T02:14:03.973Z,100955.63
2023-03-12T02:16:31.871Z,100947.59
2023-03-12T02:19:02.655Z,100939.78
2023-03-12T02:21:35.487Z,100939.97
2023-03-12T02:24:09.356Z,100931.16
2023-03-12T02:26:40.560Z,100934.84
2023-03-12T02:29:10.461Z,100924.16
2023-03-12T02:31:41.917Z,100921.69
2023-03-12T02:34:10.305Z,100931.53
2023-03-12T02:36:38.028Z,100928.88
2023-03-12T02:39:06.033Z,100927.41
2023-03-12T02:41:37.434Z,100926.19
2023-03-12T02:44:11.260Z,100923.53
2023-03-12T02:46:41.860Z,100933.56
2023-03-12T02:49:11.925Z,100935.22
2023-03-12T02:51:39.969Z,100936.25
2023-03-12T02:54:08.322Z,100935.22
2023-03-12T02:56:36.211Z,100940.75
2023-03-12T02:59:06.132Z,100935.41
2023-03-12T03:01:34.275Z,100933.75
2023-03-12T03:04:02.630Z,100931.91
2023-03-12T03:06:31.062Z,100931.28
2023-03-12T03:08:59.247Z,100932.94
2023-03-12T03:11:26.937Z,100927.78
2023-03-12T03:13:55.630Z,100928.63
2023-03-12T03:16:25.252Z,100923.66
2023-03-12T03:18:53.027Z,100922.66
2023-03-12T03:21:20.859Z,100926.34
2023-03-12T03:23:50.397Z,100919.97
2023-03-12T03:26:20.562Z,100909.50
2023-03-12T03:28:48.352Z,100904.97
2023-03-12T03:31:16.245Z,100906.81
2023-03-12T03:33:45.374Z,100904.16
2023-03-12T03:36:14.799Z,100905.16
2023-03-12T03:38:47.029Z,100900.03
2023-03-12T03:41:15.012Z,100902.50
2023-03-12T03:43:42.791Z,100901.88
2023-03-12T03:46:12.736Z,100909.88
2023-03-12T03:48:41.083Z,100905.38
2023-03-12T03:51:11.646Z,100882.56
2023-03-12T03:53:39.376Z,100879.69
2023-03-12T03:56:08.729Z,100869.66
2023-03-12T03:58:36.496Z,100859.16
2023-03-12T04:01:04.404Z,100849.31
2023-03-12T04:03:32.233Z,100847.47
2023-03-12T04:06:01.830Z,100847.47
2023-03-12T04:08:32.424Z,100858.16
2023-03-12T04:11:00.194Z,100861.00
2023-03-12T04:13:27.922Z,100861.00
2023-03-12T04:15:55.681Z,100852.19
2023-03-12T04:18:23.380Z,100852.00
2023-03-12T04:20:51.494Z,100855.69
2023-03-12T04:23:19.212Z,100834.97
2023-03-12T04:25:48.319Z,100835.16
2023-03-12T04:28:16.137Z,100827.97
2023-03-12T04:30:43.910Z,100830.00
2023-03-12T04:33:11.801Z,100831.03
2023-03-12T04:35:39.474Z,100835.16
2023-03-12T04:38:07.208Z,100822.00
2023-03-12T04:40:34.935Z,100813.16
2023-03-12T04:43:03.993Z,100803.50
2023-03-12T04:45:31.709Z,100808.03
2023-03-12T04:47:59.396Z,100792.84
2023-03-12T04:50:27.135Z,100804.53
2023-03-12T04:52:54.785Z,100799.00
2023-03-12T04:55:22.537Z,100807.41
2023-03-12T04:57:50.236Z,100810.88
2023-03-12T05:00:20.116Z,100807.41
2023-03-12T05:02:47.842Z,100803.06
2023-03-12T05:05:15.514Z,100793.22
2023-03-12T05:07:43.241Z,100786.03
2023-03-12T05:10:12.021Z,100787.06
2023-03-12T05:12:39.696Z,100778.03
2023-03-12T05:15:08.572Z,100773.72
2023-03-12T05:17:37.658Z,100770.22
2023-03-12T05:20:06.300Z,100760.56
2023-03-12T05:22:34.105Z,100757.91
2023-03-12T05:25:01.867Z,100756.88
2023-03-12T05:27:31.585Z,100758.53
2023-03-12T05:29:59.874Z,100759.56
2023-03-12T05:32:27.620Z,100759.56
2023-03-12T05:34:56.723Z,100760.56
2023-03-12T05:37:24.435Z,100761.59
2023-03-12T05:39:52.258Z,100767.75
2023-03-12T05:42:19.967Z,100762.41
2023-03-12T05:44:47.705Z,100759.75
2023-03-12T05:47:15.461Z,100751.75
2023-03-12T05:49:44.230Z,100740.88
2023-03-12T05:52:13.368Z,100743.75
2023-03-12T05:54:41.093Z,100738.59
2023-03-12T05:57:08.785Z,100743.13
2023-03-12T05:59:36.559Z,100741.28
2023-03-12T06:02:04.405Z,100739.44
2023-03-12T06:04:32.138Z,100738.25
2023-03-12T06:06:59.867Z,100749.44
2023-03-12T06:09:28.939Z,100749.72
2023-03-12T06:11:56.641Z,100753.13
2023-03-12T06:14:24.326Z,100750.06
2023-03-12T06:16:52.104Z,100748.88
2023-03-12T06:19:19.985Z,100747.47
2023-03-12T06:21:48.820Z,100748.13
2023-03-12T06:24:16.569Z,100760.25
2023-03-12T06:26:45.641Z,100752.66
2023-03-12T06:29:13.420Z,100771.19
2023-03-12T06:31:42.320Z,100765.19
2023-03-12T06:34:10.341Z,100767.25
2023-03-12T06:36:38.195Z,100757.16
2023-03-12T06:39:08.231Z,100749.16
2023-03-12T06:41:36.397Z,100753.88
2023-03-12T06:44:06.286Z,100749.34
2023-03-12T06:46:34.710Z,100737.81
2023-03-12T06:49:02.465Z,100736.78
2023-03-12T06:51:30.207Z,100728.53
2023-03-12T06:53:58.025Z,100722.75
2023-03-12T06:56:25.737Z,100717.81
2023-03-12T06:58:53.469Z,100715.13
2023-03-12T07:01:22.614Z,100720.25
2023-03-12T07:03:50.332Z,100718.22
2023-03-12T07:06:20.510Z,100709.78
2023-03-12T07:08:48.681Z,100707.50
2023-03-12T07:11:17.681Z,100710.78
2023-03-12T07:13:45.427Z,100705.84
2023-03-12T07:16:13.335Z,100707.88
2023-03-12T07:18:42.389Z,100705.38
2023-03-12T07:21:10.208Z,100709.47
2023-03-12T07:23:37.904Z,100711.94
2023-03-12T07:26:06.310Z,100719.13
2023-03-12T07:28:34.138Z,100714.63
2023-03-12T07:31:02.617Z,100715.66
2023-03-12T07:33:30.484Z,100721.03
2023-03-12T07:35:59.811Z,100715.94
2023-03-12T07:38:27.819Z,100718.44
2023-03-12T07:40:56.992Z,100720.34
2023-03-12T07:43:26.192Z,100721.59
2023-03-12T07:45:54.199Z,100722.41
2023-03-12T07:48:21.982Z,100727.34
2023-03-12T07:50:49.963Z,100728.16
2023-03-12T07:53:19.135Z,100729.16
2023-03-12T07:55:48.189Z,100718.41
2023-03-12T07:58:16.626Z,100713.28
2023-03-12T08:00:44.960Z,100711.63
2023-03-12T08:03:13.324Z,100712.28
2023-03-12T08:05:41.543Z,100719.09
2023-03-12T08:08:10.018Z,100718.91
2023-03-12T08:10:39.346Z,100713.97
2023-03-12T08:13:07.134Z,100708.19
2023-03-12T08:15:34.916Z,100721.78
2023-03-12T08:18:02.688Z,100706.94
2023-03-12T08:20:30.424Z,100716.59
2023-03-12T08:22:58.170Z,100728.13
2023-03-12T08:25:26.052Z,100712.28
2023-03-12T08:27:55.362Z,100709.38
2023-03-12T08:30:23.273Z,100718.63
2023-03-12T08:32:51.084Z,100724.59
2023-03-12T08:35:19.001Z,100724.78
2023-03-12T08:37:46.701Z,100734.22
2023-03-12T08:40:15.078Z,100739.56
2023-03-12T08:42:44.110Z,100738.31
2023-03-12T08:45:14.151Z,100742.66
2023-03-12T08:47:42.008Z,100749.84
2023-03-12T08:50:11.257Z,100750.03
2023-03-12T08:52:39.417Z,100759.31
2023-03-12T08:55:07.739Z,100750.47
2023-03-12T08:57:35.445Z,100756.84
2023-03-12T09:00:05.252Z,100752.31
2023-03-12T09:02:34.396Z,100753.97
2023-03-12T09:05:02.105Z,100761.38
2023-03-12T09:07:31.402Z,100760.19
2023-03-12T09:09:59.393Z,100755.69
2023-03-12T09:12:27.171Z,100757.59
2023-03-12T09:15:04.186Z,100757.38
2023-03-12T09:17:34.007Z,100756.56
2023-03-12T09:20:01.799Z,100749.53
2023-03-12T09:22:30.465Z,100757.97
2023-03-12T09:24:58.277Z,100745.38
2023-03-12T09:27:26.138Z,100755.03
2023-03-12T09:30:02.734Z,100751.34
2023-03-12T09:32:30.694Z,100745.63
2023-03-12T09:34:59.790Z,100752.81
2023-03-12T09:37:27.613Z,100763.34
2023-03-12T09:39:55.421Z,100753.69
2023-03-12T09:42:26.095Z,100757.81
2023-03-12T09:44:57.013Z,100757.19
2023-03-12T09:47:29.779Z,100756.78
2023-03-12T09:50:04.446Z,100764.78
2023-03-12T09:52:36.332Z,100770.53
2023-03-12T09:55:08.870Z,100770.94
2023-03-12T09:57:36.637Z,100782.69
2023-03-12T10:00:07.254Z,100791.09
2023-03-12T10:02:55.143Z,100795.84
2023-03-12T10:05:36.670Z,100788.84
2023-03-12T10:08:24.219Z,100792.75
2023-03-12T10:10:56.857Z,100788.41
2023-03-12T10:13:45.274Z,100796.25
2023-03-12T10:16:23.921Z,100784.50
2023-03-12T10:19:11.357Z,100796.25
2023-03-12T10:21:50.471Z,100786.16
2023-03-12T10:24:31.868Z,100791.09
2023-03-12T10:27:02.006Z,100793.97
2023-03-12T10:29:32.146Z,100794.59
2023-03-12T10:32:03.527Z,100794.19
2023-03-12T10:34:37.568Z,100788.00
2023-03-12T10:37:16.970Z,100789.88
2023-03-12T10:39:44.956Z,100790.69
2023-03-12T10:42:19.375Z,100797.69
2023-03-12T10:44:48.589Z,100794.00
2023-03-12T10:47:29.247Z,100790.91
2023-03-12T10:50:14.385Z,100786.38
2023-03-12T10:52:44.249Z,100779.38
2023-03-12T10:55:14.302Z,100780.00
2023-03-12T10:57:43.496Z,100789.66
2023-03-12T11:00:18.687Z,100781.44
2023-03-12T11:02:47.386Z,100790.28
2023-03-12T11:05:23.709Z,100782.88
2023-03-12T11:07:53.319Z,100789.06
2023-03-12T11:10:24.561Z,100784.53
2023-03-12T11:13:03.081Z,100802.25
2023-03-12T11:15:38.863Z,100792.38
2023-03-12T11:18:27.080Z,100789.28
2023-03-12T11:20:57.069Z,100805.34
2023-03-12T11:23:29.490Z,100801.63
2023-03-12T11:26:00.672Z,100786.88
2023-03-12T11:28:37.215Z,100805.16
2023-03-12T11:31:09.522Z,100796.63
2023-03-12T11:33:37.452Z,100801.25
2023-03-12T11:36:18.060Z,100788.78
2023-03-12T11:38:58.206Z,100794.47
2023-03-12T11:41:39.224Z,100796.22
2023-03-12T11:44:20.802Z,100794.31
2023-03-12T11:47:00.647Z,100803.84
2023-03-12T11:49:38.804Z,100801.47
2023-03-12T11:52:13.506Z,100808.00
2023-03-12T11:55:06.838Z,100798.41
2023-03-12T11:57:46.443Z,100794.59
2023-03-12T12:00:17.633Z,100793.00
2023-03-12T12:03:42.479Z,100797.56
2023-03-12T12:06:18.298Z,100790.59
2023-03-12T12:09:03.432Z,100789.97
2023-03-12T12:11:45.417Z,100775.75
2023-03-12T12:14:29.544Z,100773.28
2023-03-12T12:17:08.697Z,100762.78
2023-03-12T12:19:54.308Z,100753.50
2023-03-12T12:22:37.273Z,100760.13
2023-03-12T12:25:29.904Z,100756.81
2023-03-12T12:28:23.924Z,100750.28
2023-03-12T12:31:03.317Z,100747.97
2023-03-12T12:33:46.337Z,100747.75
2023-03-12T12:36:15.379Z,100739.72
2023-03-12T12:38:48.096Z,100738.69
2023-03-12T12:41:19.097Z,100736.84
2023-03-12T12:43:50.598Z,100739.50
2023-03-12T12:46:20.931Z,100734.97
2023-03-12T12:48:54.395Z,100737.44
2023-03-12T12:51:26.692Z,100735.59
2023-03-12T12:54:02.352Z,100731.81
2023-03-12T12:56:34.728Z,100723.63
2023-03-12T12:59:21.416Z,100719.34
2023-03-12T13:01:50.421Z,100714.44
2023-03-12T13:04:25.884Z,100712.81
2023-03-12T13:07:03.653Z,100704.34
2023-03-12T13:09:42.039Z,100699.06
2023-03-12T13:12:15.898Z,100701.97
2023-03-12T13:14:46.039Z,100700.00
2023-03-12T13:17:23.784Z,100697.00
2023-03-12T13:20:00.804Z,100705.56
2023-03-12T13:22:45.832Z,100693.69
2023-03-12T13:25:27.775Z,100694.78
2023-03-12T13:28:00.383Z,100700.38
2023-03-12T13:30:47.405Z,100702.41
2023-03-12T13:33:16.926Z,100704.97
2023-03-12T13:36:03.676Z,100689.72
2023-03-12T13:38:40.808Z,100684.78
2023-03-12T13:41:08.984Z,100692.34
2023-03-12T13:43:56.206Z,100678.91
2023-03-12T13:46:45.751Z,100687.75
2023-03-12T13:49:19.724Z,100671.22
2023-03-12T13:51:56.529Z,100661.31
2023-03-12T13:54:26.423Z,100666.72
2023-03-12T13:57:01.007Z,100689.88
2023-03-12T13:59:30.692Z,100677.94
2023-03-12T14:02:06.099Z,100670.66
2023-03-12T14:04:40.922Z,100677.50
2023-03-12T14:07:49.400Z,100685.84
2023-03-12T14:10:23.180Z,100693.69
2023-03-12T14:12:58.272Z,100693.88
2023-03-12T14:15:35.856Z,100696.63
2023-03-12T14:18:14.817Z,100709.97
2023-03-12T14:20:43.007Z,100712.47
2023-03-12T14:23:16.423Z,100710.47
2023-03-12T14:25:47.338Z,100710.69
2023-03-12T14:28:20.116Z,100704.34
2023-03-12T14:30:57.298Z,100698.44
2023-03-12T14:33:28.478Z,100703.78
2023-03-12T14:36:02.797Z,100732.78
2023-03-12T14:38:34.584Z,100720.00
2023-03-12T14:41:04.898Z,100724.56
2023-03-12T14:43:34.654Z,100726.03
2023-03-12T14:46:04.824Z,100726.25
2023-03-12T14:48:35.674Z,100737.00
2023-03-12T14:51:04.694Z,100732.91
2023-03-12T14:53:34.295Z,100731.69
2023-03-12T14:56:04.324Z,100721.78
2023-03-12T14:58:33.228Z,100714.38
2023-03-12T15:01:03.145Z,100721.84
2023-03-12T15:03:35.173Z,100726.38
2023-03-12T15:06:04.349Z,100720.63
2023-03-12T15:08:39.487Z,100736.75
2023-03-12T15:11:07.321Z,100726.81
2023-03-12T15:13:39.258Z,100732.41
2023-03-12T15:16:08.120Z,100726.81
2023-03-12T15:18:36.031Z,100720.63
2023-03-12T15:21:05.802Z,100736.75
2023-03-12T15:23:36.964Z,100731.09
2023-03-12T15:26:14.666Z,100733.41
2023-03-12T15:28:43.134Z,100728.03
2023-03-12T15:31:13.893Z,100731.38
2023-03-12T15:33:42.842Z,100733.22
2023-03-12T15:36:27.274Z,100734.38
2023-03-12T15:38:57.962Z,100727.41
2023-03-12T15:41:28.541Z,100725.59
2023-03-12T15:43:57.586Z,100725.94
2023-03-12T15:46:27.176Z,100736.22
2023-03-12T15:48:57.558Z,100730.00
2023-03-12T15:51:33.338Z,100731.59
2023-03-12T15:54:03.798Z,100728.03
2023-03-12T15:56:33.688Z,100727.63
2023-03-12T15:59:04.861Z,100718.88
2023-03-12T16:01:45.525Z,100719.72
2023-03-12T16:04:13.771Z,100724.97
2023-03-12T16:06:44.015Z,100724.72
2023-03-12T16:09:15.899Z,100706.19
2023-03-12T16:11:43.855Z,100712.69
2023-03-12T16:14:18.718Z,100719.75
2023-03-12T16:16:46.900Z,100724.72
2023-03-12T16:19:16.382Z,100713.69
2023-03-12T16:21:45.873Z,100708.00
2023-03-12T16:24:16.348Z,100719.88
2023-03-12T16:26:50.473Z,100698.47
2023-03-12T16:29:19.664Z,100706.53
2023-03-12T16:31:52.581Z,100709.50
2023-03-12T16:34:20.381Z,100713.50
2023-03-12T16:36:49.459Z,100717.69
2023-03-12T16:39:18.822Z,100718.94
2023-03-12T16:41:47.113Z,100715.28
2023-03-12T16:44:20.058Z,100716.56
2023-03-12T16:46:48.319Z,100705.66
2023-03-12T16:49:18.119Z,100717.22
2023-03-12T16:51:46.000Z,100696.78
2023-03-12T16:54:15.223Z,100714.94
2023-03-12T16:56:44.772Z,100716.81
2023-03-12T16:59:26.714Z,100716.44
2023-03-12T17:01:54.663Z,100714.13
2023-03-12T17:04:22.507Z,100718.34
2023-03-12T17:06:50.294Z,100713.78
2023-03-12T17:09:20.305Z,100724.88
2023-03-12T17:11:52.657Z,100716.88
2023-03-12T17:14:23.226Z,100723.75
2023-03-12T17:16:51.080Z,100732.59
2023-03-12T17:19:21.756Z,100740.63
2023-03-12T17:21:50.405Z,100740.19
2023-03-12T17:24:19.532Z,100734.34
2023-03-12T17:26:51.908Z,100735.69
2023-03-12T17:29:19.637Z,100740.94
2023-03-12T17:31:47.367Z,100737.31
2023-03-12T17:34:15.175Z,100747.16
2023-03-12T17:36:42.888Z,100763.44
2023-03-12T17:39:10.738Z,100747.63
2023-03-12T17:41:39.788Z,100756.22
2023-03-12T17:44:08.485Z,100755.94
2023-03-12T17:46:39.190Z,100753.91
2023-03-12T17:49:08.435Z,100758.41
2023-03-12T17:51:36.225Z,100762.91
2023-03-12T17:54:03.929Z,100758.31
2023-03-12T17:56:31.699Z,100752.41
2023-03-12T17:59:00.997Z,100754.38
2023-03-12T18:01:28.703Z,100756.31
2023-03-12T18:03:56.437Z,100757.81
2023-03-12T18:06:24.254Z,100753.69
2023-03-12T18:08:52.044Z,100750.03
2023-03-12T18:11:19.798Z,100760.78
2023-03-12T18:13:48.532Z,100755.81
2023-03-12T18:16:17.721Z,100752.66
2023-03-12T18:18:45.546Z,100753.63
2023-03-12T18:21:13.271Z,100758.47
2023-03-12T18:23:42.618Z,100749.16
2023-03-12T18:26:10.574Z,100744.97
2023-03-12T18:28:38.395Z,100742.66
2023-03-12T18:31:06.244Z,100734.16
2023-03-12T18:33:36.366Z,100737.56
2023-03-12T18:36:04.273Z,100740.84
2023-03-12T18:38:32.858Z,100745.00
2023-03-12T18:41:05.490Z,100742.84
2023-03-12T18:43:33.484Z,100744.22
2023-03-12T18:46:01.270Z,100740.91
2023-03-12T18:48:29.036Z,100748.09
2023-03-12T18:50:58.332Z,100748.88
2023-03-12T18:53:26.203Z,100739.25
2023-03-12T18:55:55.285Z,100732.56
2023-03-12T18:58:24.821Z,100721.66
2023-03-12T19:00:53.239Z,100720.69
2023-03-12T19:03:22.056Z,100719.50
2023-03-12T19:05:50.625Z,100718.16
2023-03-12T19:08:20.743Z,100712.88
2023-03-12T19:10:48.451Z,100709.97
2023-03-12T19:13:16.175Z,100713.84
2023-03-12T19:15:45.155Z,100713.25
2023-03-12T19:18:13.023Z,100705.41
2023-03-12T19:20:40.740Z,100706.69
2023-03-12T19:23:08.449Z,100702.78
2023-03-12T19:25:37.522Z,100702.19
2023-03-12T19:28:05.226Z,100697.06
2023-03-12T19:30:33.502Z,100691.91
2023-03-12T19:33:01.413Z,100691.91
2023-03-12T19:35:29.233Z,100693.16
2023-03-12T19:37:58.373Z,100692.34
2023-03-12T19:40:26.237Z,100693.63
2023-03-12T19:42:55.299Z,100698.31
2023-03-12T19:45:23.114Z,100691.28
2023-03-12T19:47:52.454Z,100692.31
2023-03-12T19:50:20.716Z,100689.34
2023-03-12T19:52:48.825Z,100681.00
2023-03-12T19:55:16.734Z,100677.41
2023-03-12T19:57:44.545Z,100663.28
2023-03-12T20:00:14.883Z,100638.25
2023-03-12T20:02:42.662Z,100645.41
2023-03-12T20:05:11.323Z,100643.78
2023-03-12T20:07:39.377Z,100638.38
2023-03-12T20:10:10.371Z,100626.31
2023-03-12T20:12:38.153Z,100628.97
2023-03-12T20:15:06.965Z,100631.06
2023-03-12T20:17:36.096Z,100624.63
2023-03-12T20:20:05.841Z,100623.31
2023-03-12T20:22:36.271Z,100616.63
2023-03-12T20:25:06.059Z,100610.53
2023-03-12T20:27:35.162Z,100614.94
2023-03-12T20:30:03.703Z,100600.31
2023-03-12T20:32:31.518Z,100600.19
2023-03-12T20:35:00.679Z,100578.41
2023-03-12T20:37:28.413Z,100595.72
2023-03-12T20:39:56.144Z,100588.56
2023-03-12T20:42:23.873Z,100584.72
2023-03-12T20:44:51.537Z,100585.97
2023-03-12T20:47:19.282Z,100591.81
2023-03-12T20:49:47.028Z,100574.38
2023-03-12T20:52:16.099Z,100591.44
2023-03-12T20:54:43.793Z,100584.66
2023-03-12T20:57:11.540Z,100583.25
2023-03-12T20:59:39.225Z,100581.59
2023-03-12T21:02:06.992Z,100572.72
2023-03-12T21:04:34.727Z,100580.44
2023-03-12T21:07:02.480Z,100578.81
2023-03-12T21:09:31.830Z,100570.97
2023-03-12T21:11:59.647Z,100569.13
2023-03-12T21:14:27.372Z,100564.19
2023-03-12T21:16:55.717Z,100551.22
2023-03-12T21:19:23.434Z,100553.69
2023-03-12T21:21:51.167Z,100555.53
2023-03-12T21:24:18.946Z,100552.84
2023-03-12T21:26:48.063Z,100546.06
2023-03-12T21:29:15.801Z,100540.69
2023-03-12T21:31:43.618Z,100541.75
2023-03-12T21:34:11.354Z,100544.44
2023-03-12T21:36:39.050Z,100538.00
2023-03-12T21:39:06.806Z,100525.88
2023-03-12T21:41:34.575Z,100524.00
2023-03-12T21:44:03.731Z,100526.44
2023-03-12T21:46:31.544Z,100515.72
2023-03-12T21:48:59.688Z,100513.84
2023-03-12T21:51:27.628Z,100508.94
2023-03-12T21:53:56.299Z,100508.69
2023-03-12T21:56:26.411Z,100497.38
2023-03-12T21:58:54.182Z,100484.00
2023-03-12T22:01:23.384Z,100500.88
2023-03-12T22:03:51.433Z,100484.97
2023-03-12T22:06:19.162Z,100481.47
2023-03-12T22:08:49.211Z,100474.25
2023-03-12T22:11:17.406Z,100466.19
2023-03-12T22:13:45.622Z,100458.13
2023-03-12T22:16:14.381Z,100450.31
2023-03-12T22:18:45.653Z,100443.06
2023-03-12T22:21:17.161Z,100441.19
2023-03-12T22:23:47.758Z,100439.56
2023-03-12T22:26:15.837Z,100422.69
2023-03-12T22:28:43.757Z,100424.50
2023-03-12T22:31:11.526Z,100421.00
2023-03-12T22:33:39.267Z,100412.94
2023-03-12T22:36:10.950Z,100413.75
2023-03-12T22:38:39.334Z,100403.84
2023-03-12T22:41:19.551Z,100399.28
2023-03-12T22:43:48.475Z,100399.50
2023-03-12T22:46:17.047Z,100385.25
2023-03-12T22:48:45.501Z,100394.13
2023-03-12T22:51:15.315Z,100381.72
2023-03-12T22:53:43.054Z,100381.72
2023-03-12T22:56:12.463Z,100377.41
2023-03-12T22:58:40.643Z,100375.53
2023-03-12T23:01:10.179Z,100373.91
2023-03-12T23:03:39.146Z,100372.03
2023-03-12T23:06:10.186Z,100365.25
2023-03-12T23:08:39.851Z,100366.91
2023-03-12T23:11:09.572Z,100365.03
2023-03-12T23:13:40.128Z,100355.34
2023-03-12T23:16:10.073Z,100349.97
2023-03-12T23:18:39.526Z,100340.28
2023-03-12T23:21:09.632Z,100332.22
2023-03-12T23:23:39.379Z,100334.91
2023-03-12T23:26:09.761Z,100326.03
2023-03-12T23:28:37.485Z,100311.56
2023-03-12T23:31:07.685Z,100312.59
2023-03-12T23:33:36.163Z,100304.53
2023-03-12T23:36:06.541Z,100293.00
2023-03-12T23:38:37.405Z,100285.97
2023-03-12T23:41:06.831Z,100295.44
2023-03-12T23:43:35.970Z,100283.66
2023-03-12T23:46:06.365Z,100266.03
2023-03-12T23:48:36.223Z,100271.84
2023-03-12T23:51:08.696Z,100261.94
2023-03-12T23:53:37.792Z,100253.88
2023-03-12T23:56:08.040Z,100249.56
2023-03-12T23:58:37.254Z,100246.06
